• Join FlightAware (Why Join?)
  • Login
  • US Flag 
08:28AM EDT


 

Airport Tracker/Info


-or-


 

Live Flight TrackerFlight Track Log ✈ FFT783 ✈ 21-Jun-2013 ✈ KDEN - KLAS

Flight Track Log - Related Links

Times and Time Zones

All times are in EDT time to prevent confusion due to time zone crossing. See the FFT783 flight status page for this flight to view local times or setup timezone preferences in your user account.

Time Position Orientation Groundspeed Altitude Reporting Facility
EDT Latitude Longitude Course Direction KTS MPH feet Rate Location/Type
11:30AM 39.8333 -104.7500 270° West 174 200 6,600  Level Denver TRACON
11:31AM 39.8333 -104.8167 270° West 225 259 7,300 1,080 Climbing Denver TRACON
11:32AM 39.8333 -104.9167 270° West 281 323 8,800 1,740 Climbing Denver TRACON
11:34AM 39.8322 -105.0419 269° West 293 337 11,200 2,220 Climbing Denver Center
11:35AM 39.8072 -105.1544 254° West 302 348 13,800 2,460 Climbing Denver Center
11:36AM 39.7842 -105.2561 254° West 295 339 16,300 2,100 Climbing Denver Center
11:37AM 39.7603 -105.3689 255° West 301 346 18,200 1,740 Climbing Denver Center
11:38AM 39.7353 -105.4789 254° West 316 364 19,900 1,740 Climbing Denver Center
11:39AM 39.7089 -105.5994 254° West 325 374 21,900 1,320 Climbing Denver Center
11:40AM 39.6781 -105.7161 251° West 345 397 22,700 960 Climbing Denver Center
11:41AM 39.6411 -105.8511 250° West 369 425 23,900 1,200 Climbing Denver Center
11:42AM 39.6072 -105.9839 252° West 387 445 25,300 1,200 Climbing Denver Center
11:43AM 39.5711 -106.1186 251° West 396 456 26,500 1,080 Climbing Denver Center
11:44AM 39.5367 -106.2450 251° West 407 468 27,600 1,080 Climbing Denver Center
11:45AM 39.4906 -106.4133 251° West 414 476 28,800 1,200 Climbing Denver Center
11:46AM 39.4497 -106.5608 250° West 423 487 30,100 1,020 Climbing Denver Center
11:47AM 39.4117 -106.6975 250° West 423 487 31,000 1,020 Climbing Denver Center
11:48AM 39.3661 -106.8597 250° West 428 493 32,300 1,200 Climbing Denver Center
11:49AM 39.3300 -106.9956 251° West 420 483 33,600 1,140 Climbing Denver Center
11:50AM 39.2858 -107.1514 250° West 414 476 34,700 960 Climbing Denver Center
11:51AM 39.2464 -107.2872 249° West 419 482 35,700 600 Climbing Denver Center
11:52AM 39.2028 -107.4433 250° West 416 479 36,000 120 Climbing Denver Center
11:53AM 39.1642 -107.5778 250° West 417 480 36,000  Level Denver Center
11:54AM 39.1189 -107.7328 249° West 414 476 36,000  Level Denver Center
11:55AM 39.0814 -107.8658 250° West 415 478 36,000  Level Denver Center
11:56AM 39.0428 -107.9975 249° West 409 471 36,000  Level Denver Center
11:57AM 38.9983 -108.1522 250° West 412 474 36,000  Level Denver Center
11:58AM 38.9583 -108.2864 249° West 416 479 36,000  Level Denver Center
12:00PM 38.9122 -108.4411 249° West 415 478 36,000  Level Denver Center
12:01PM 38.8753 -108.5697 250° West 400 460 36,000 -60 Level Denver Center
12:02PM 38.8303 -108.7192 249° West 402 463 35,900  Descending Denver Center
12:03PM 38.7925 -108.8481 249° West 403 464 36,000  Climbing Denver Center
12:04PM 38.7478 -108.9978 249° West 402 463 36,000  Level Denver Center
12:05PM 38.7100 -109.1258 249° West 401 461 36,000  Level Denver Center
12:06PM 38.6711 -109.2514 248° West 397 457 36,000  Level Denver Center
12:07PM 38.6261 -109.3981 249° West 396 456 36,000  Level Denver Center
12:08PM 38.5881 -109.5233 249° West 396 456 36,000  Level Denver Center
12:09PM 38.5422 -109.6689 248° West 395 455 36,000  Level Denver Center
12:10PM 38.5039 -109.7919 248° West 391 450 36,000  Level Denver Center
12:11PM 38.4578 -109.9397 248° West 396 456 36,000  Level Denver Center
12:12PM 38.4189 -110.0661 249° West 400 460 36,000 -120 Level Denver Center
12:13PM 38.3656 -110.2353 248° West 403 464 35,800 -420 Descending Denver Center
12:15PM 38.3119 -110.4011 248° West 399 459 35,100 -660 Descending Denver Center
12:16PM 38.2494 -110.5378 240° Southwest 398 458 34,400 -660 Descending Denver Center
12:17PM 38.1881 -110.6750 240° Southwest 401 461 33,800 -600 Descending Denver Center
12:18PM 38.1347 -110.7931 240° Southwest 401 461 33,200 -600 Descending Salt Lake Center
12:19PM 38.0744 -110.9300 241° Southwest 399 459 32,600 -600 Descending Salt Lake Center
12:20PM 38.0200 -111.0481 240° Southwest 394 453 32,000 -300 Descending Salt Lake Center
12:21PM 37.9661 -111.1675 240° Southwest 391 450 32,000  Level Salt Lake Center
12:22PM 37.9114 -111.2864 240° Southwest 392 451 32,000  Level Salt Lake Center
12:23PM 37.8442 -111.4319 240° Southwest 398 458 32,000  Level Salt Lake Center
12:24PM 37.7908 -111.5553 241° Southwest 401 461 32,000  Level Salt Lake Center
12:25PM 37.7328 -111.6747 238° Southwest 401 461 32,000  Level Salt Lake Center
12:26PM 37.6769 -111.7947 240° Southwest 397 457 32,000  Level Salt Lake Center
12:27PM 37.6217 -111.9144 240° Southwest 395 455 32,000  Level Salt Lake Center
12:28PM 37.5667 -112.0325 240° Southwest 392 451 32,000  Level Salt Lake Center
12:29PM 37.5006 -112.1711 239° Southwest 386 444 32,000  Level Salt Lake Center
12:30PM 37.4472 -112.2858 240° Southwest 383 441 32,000 -60 Level Salt Lake Center
12:31PM 37.3936 -112.3989 239° Southwest 379 436 31,900  Descending Salt Lake Center
12:32PM 37.3714 -112.4436 238° Southwest 374 430 32,000 60 Climbing Los Angeles Center
12:33PM 37.3075 -112.5786 239° Southwest 372 428 32,000  Level Los Angeles Center
12:34PM 37.2539 -112.6897 239° Southwest 369 425 32,000  Level Los Angeles Center
12:35PM 37.1992 -112.8058 239° Southwest 378 435 32,000  Level Los Angeles Center
12:36PM 37.1403 -112.9281 239° Southwest 399 459 32,000  Level Los Angeles Center
12:37PM 37.0819 -113.0492 239° Southwest 404 465 32,000  Level Los Angeles Center
12:38PM 37.0133 -113.1928 239° Southwest 401 461 32,000  Level Los Angeles Center
12:39PM 36.9547 -113.3125 239° Southwest 401 461 32,000 -60 Level Los Angeles Center
12:40PM 36.8969 -113.4311 239° Southwest 400 460 31,900 -660 Descending Los Angeles Center
12:41PM 36.8386 -113.5500 239° Southwest 401 461 30,700 -2,400 Descending Los Angeles Center
12:42PM 36.7797 -113.6703 239° Southwest 405 466 27,000 -3,420 Descending Los Angeles Center
12:43PM 36.7183 -113.7950 238° Southwest 419 482 23,700 -3,300 Descending Los Angeles Center
12:44PM 36.6458 -113.9411 238° Southwest 415 478 20,200 -3,000 Descending Los Angeles Center
12:45PM 36.5861 -114.0603 238° Southwest 408 470 17,500 -2,520 Descending Los Angeles Center
12:46PM 36.5303 -114.1800 240° Southwest 401 461 15,000 -1,920 Descending Los Angeles Center
12:47PM 36.4797 -114.2917 241° Southwest 385 443 13,500 -1,140 Descending Los Angeles Center
12:48PM 36.4350 -114.3911 241° Southwest 338 389 12,700 -840 Descending Los Angeles Center
12:49PM 36.3958 -114.4772 241° Southwest 294 338 11,800 -1,080 Descending Los Angeles Center
12:50PM 36.3175 -114.5389 212° Southwest 276 318 10,500 -1,260 Descending Los Angeles Center
12:52PM 36.2428 -114.5981 213° Southwest 275 316 9,100 -1,200 Descending Los Angeles Center
12:52PM 36.1886 -114.6394 212° Southwest 271 312 8,100 -960 Descending Los Angeles Center
12:53PM 36.1478 -114.7206 238° Southwest 274 315 7,300 -780 Descending Los Angeles Center
12:55PM 36.1069 -114.8014 238° Southwest 275 316 6,500 -480 Descending Los Angeles Center
12:56PM 36.0756 -114.8794 244° Southwest 267 307 6,400 -900 Descending Los Angeles Center
12:57PM 36.0744 -114.9719 269° West 240 276 4,700 -1,560 Descending Los Angeles Center
12:58PM 36.0728 -115.0442 268° West 204 235 3,300 -1,080 Descending Los Angeles Center
12:59PM 36.0739 -115.1008 271° West 185 213 2,500 -600 Descending Los Angeles Center
01:00PM 36.0739 -115.1486 270° West 162 186 2,100 -420 Descending Los Angeles Center